Aeroporto :
LOGIN :

Iscrizione | Disclaimer

   EN    FR    IT 

 










Sommario :    VFR   VFR Marginale   IFR   IFR Intensivo   IFR Molto Intensivo
Visibilità : 
Base nubi : 
>= 8 km
>= 3000ft
5 / 8 km
1000 / 3000 ft
1500m / 5 km
500 / 1000 ft
800 / 1500m
200 / 500 ft
< 800m
< 200 ft
Simboli :   Temporali  Nebbia  Neve Forte  Precipitazioni Forti  Vento > 20 kt
SIGMETs :   Varie  Temporali  Ghiacco  Turbolenza  Onda orograficha  Ceneri Vulcaniche






- Altitudine del aeroporto : 306 ft
- Codice IATA : EMA


EGNX - Nottingham East Midlands

ULTIMO METAR :
  • 231320Z 15008KT 9999 FEW015 SCT020 13/08 Q1012

METARs OBSOLETI :
  • 231250Z 17008KT 040V190 9999 SCT014 13/09 Q1012
  • 231220Z 16008KT 100V270 9999 SCT010 12/09 Q1013
  • 231150Z VRB03KT 9999 FEW002 SCT010 11/10 Q1013
  • 231120Z 10004KT 5000 0800E R09/P1500 PRFG BKN003 09/09 Q1013

TAF AMD TAF EGNX
Valido dal 23 a 12 ore il 24 a 12 ore UTC


231200Z 2312/2412 VRB03KT 8000 FEW035
BECMG 2312/2314 16010KT 9999
BECMG 2315/2318 VRB03KT
BECMG 2317/2320 8000 BKN014
TEMPO 2317/2402 RA
TEMPO 2319/2412 4000 BR BKN004
PROB30 2400/2410 0300 FG BKN001
ATIS : +44 1332 852 852 (ext 3201)



MetMap, La meteo Aeronautica in un colpo d'occhio ! - Copyright ORBIFLY Dicembre 2007 - Disclaimer

ORBIFLY MET'MAP TEAM :

Programmazione e sviluppo : Alexandra Zaïnal
Concezione e sviluppo : Baudouin d'Aumeries
Co-Programmazione e sviluppo : Marc-Olivier Méhu
Supporto tecnico e logistico : Manuel Goepfert
Aiuto per la traduzione : Arnaldo La Scala

Contatto : metmap@orbifly.com




FONTI E CREDITI :

   NOAA